sensor_id;sensor_type;location;lat;lon;timestamp;temperature;humidity
32348;DHT22;18821;44.800;10.326;2023-06-10T00:00:40;22.50;1.00
32348;DHT22;18821;44.800;10.326;2023-06-10T00:03:09;22.50;1.00
32348;DHT22;18821;44.800;10.326;2023-06-10T00:05:36;22.50;1.00
32348;DHT22;18821;44.800;10.326;2023-06-10T00:08:05;22.50;1.00
32348;DHT22;18821;44.800;10.326;2023-06-10T00:10:35;22.40;1.00
32348;DHT22;18821;44.800;10.326;2023-06-10T00:13:05;22.50;1.00
32348;DHT22;18821;44.800;10.326;2023-06-10T00:15:34;22.50;1.00
32348;DHT22;18821;44.800;10.326;2023-06-10T00:18:01;22.40;1.00
32348;DHT22;18821;44.800;10.326;2023-06-10T00:20:28;22.40;1.00
32348;DHT22;18821;44.800;10.326;2023-06-10T00:22:53;22.40;1.00
32348;DHT22;18821;44.800;10.326;2023-06-10T00:25:19;22.40;1.00
32348;DHT22;18821;44.800;10.326;2023-06-10T00:27:46;22.40;1.00
32348;DHT22;18821;44.800;10.326;2023-06-10T00:30:12;22.30;1.00
32348;DHT22;18821;44.800;10.326;2023-06-10T00:32:39;22.30;1.00
32348;DHT22;18821;44.800;10.326;2023-06-10T00:35:05;22.30;1.00
32348;DHT22;18821;44.800;10.326;2023-06-10T00:37:32;22.30;1.00
32348;DHT22;18821;44.800;10.326;2023-06-10T00:40:01;22.30;1.00
32348;DHT22;18821;44.800;10.326;2023-06-10T00:42:27;22.30;1.00
32348;DHT22;18821;44.800;10.326;2023-06-10T00:44:55;22.30;1.00
32348;DHT22;18821;44.800;10.326;2023-06-10T00:47:21;22.30;1.00
32348;DHT22;18821;44.800;10.326;2023-06-10T00:49:49;22.20;1.00
32348;DHT22;18821;44.800;10.326;2023-06-10T00:52:16;22.20;1.00
32348;DHT22;18821;44.800;10.326;2023-06-10T00:54:44;22.20;1.00
32348;DHT22;18821;44.800;10.326;2023-06-10T00:57:10;22.20;1.00
32348;DHT22;18821;44.800;10.326;2023-06-10T00:59:42;22.20;1.00
32348;DHT22;18821;44.800;10.326;2023-06-10T01:02:09;22.20;1.00
32348;DHT22;18821;44.800;10.326;2023-06-10T01:04:35;22.20;1.00
32348;DHT22;18821;44.800;10.326;2023-06-10T01:10:41;22.20;1.00
32348;DHT22;18821;44.800;10.326;2023-06-10T01:13:00;22.10;1.00
32348;DHT22;18821;44.800;10.326;2023-06-10T01:15:34;22.10;1.00
32348;DHT22;18821;44.800;10.326;2023-06-10T01:18:10;22.10;1.00
32348;DHT22;18821;44.800;10.326;2023-06-10T01:20:41;22.00;1.00
32348;DHT22;18821;44.800;10.326;2023-06-10T01:23:10;22.00;1.00
32348;DHT22;18821;44.800;10.326;2023-06-10T01:26:04;22.00;1.00
32348;DHT22;18821;44.800;10.326;2023-06-10T01:28:38;22.00;1.00
32348;DHT22;18821;44.800;10.326;2023-06-10T01:31:18;22.00;1.00
32348;DHT22;18821;44.800;10.326;2023-06-10T01:33:51;22.00;1.00
32348;DHT22;18821;44.800;10.326;2023-06-10T01:36:18;21.90;1.00
32348;DHT22;18821;44.800;10.326;2023-06-10T01:38:46;21.90;1.00
32348;DHT22;18821;44.800;10.326;2023-06-10T01:41:17;21.80;1.00
32348;DHT22;18821;44.800;10.326;2023-06-10T01:43:44;21.80;1.00
32348;DHT22;18821;44.800;10.326;2023-06-10T01:46:13;21.80;1.00
32348;DHT22;18821;44.800;10.326;2023-06-10T01:48:42;21.70;1.00
32348;DHT22;18821;44.800;10.326;2023-06-10T01:51:08;21.70;1.00
32348;DHT22;18821;44.800;10.326;2023-06-10T01:53:44;21.70;1.00
32348;DHT22;18821;44.800;10.326;2023-06-10T01:56:10;21.60;1.00
32348;DHT22;18821;44.800;10.326;2023-06-10T01:58:42;21.60;1.00
32348;DHT22;18821;44.800;10.326;2023-06-10T02:01:09;21.60;1.00
32348;DHT22;18821;44.800;10.326;2023-06-10T02:03:36;21.60;1.00
32348;DHT22;18821;44.800;10.326;2023-06-10T02:06:02;21.50;1.00
32348;DHT22;18821;44.800;10.326;2023-06-10T02:08:28;21.50;1.00
32348;DHT22;18821;44.800;10.326;2023-06-10T02:10:54;21.50;1.00
32348;DHT22;18821;44.800;10.326;2023-06-10T02:13:20;21.40;1.00
32348;DHT22;18821;44.800;10.326;2023-06-10T02:15:51;21.40;1.00
32348;DHT22;18821;44.800;10.326;2023-06-10T02:18:20;21.30;1.00
32348;DHT22;18821;44.800;10.326;2023-06-10T02:20:46;21.30;1.00
32348;DHT22;18821;44.800;10.326;2023-06-10T02:23:12;21.20;1.00
32348;DHT22;18821;44.800;10.326;2023-06-10T02:25:38;21.20;1.00
32348;DHT22;18821;44.800;10.326;2023-06-10T02:28:04;21.10;1.00
32348;DHT22;18821;44.800;10.326;2023-06-10T02:30:31;21.00;1.00
32348;DHT22;18821;44.800;10.326;2023-06-10T02:32:57;21.00;1.00
32348;DHT22;18821;44.800;10.326;2023-06-10T02:35:25;20.90;1.00
32348;DHT22;18821;44.800;10.326;2023-06-10T02:37:52;20.90;1.00
32348;DHT22;18821;44.800;10.326;2023-06-10T02:40:19;20.90;1.00
32348;DHT22;18821;44.800;10.326;2023-06-10T02:42:45;20.90;1.00
32348;DHT22;18821;44.800;10.326;2023-06-10T02:45:11;20.90;1.00
32348;DHT22;18821;44.800;10.326;2023-06-10T02:47:41;21.00;1.00
32348;DHT22;18821;44.800;10.326;2023-06-10T02:50:09;21.00;1.00
32348;DHT22;18821;44.800;10.326;2023-06-10T02:52:43;20.90;5.50
32348;DHT22;18821;44.800;10.326;2023-06-10T02:55:11;20.90;7.60
32348;DHT22;18821;44.800;10.326;2023-06-10T02:57:45;20.90;8.00
32348;DHT22;18821;44.800;10.326;2023-06-10T03:00:13;20.90;9.20
32348;DHT22;18821;44.800;10.326;2023-06-10T03:02:42;20.90;12.40
32348;DHT22;18821;44.800;10.326;2023-06-10T03:05:10;20.90;12.90
32348;DHT22;18821;44.800;10.326;2023-06-10T03:07:41;20.80;14.20
32348;DHT22;18821;44.800;10.326;2023-06-10T03:10:07;20.70;13.60
32348;DHT22;18821;44.800;10.326;2023-06-10T03:12:35;20.80;14.30
32348;DHT22;18821;44.800;10.326;2023-06-10T03:15:01;20.70;16.20
32348;DHT22;18821;44.800;10.326;2023-06-10T03:17:31;20.70;17.10
32348;DHT22;18821;44.800;10.326;2023-06-10T03:19:57;20.70;17.70
32348;DHT22;18821;44.800;10.326;2023-06-10T03:22:23;20.70;16.70
32348;DHT22;18821;44.800;10.326;2023-06-10T03:25:09;20.80;17.70
32348;DHT22;18821;44.800;10.326;2023-06-10T03:27:42;20.70;16.00
32348;DHT22;18821;44.800;10.326;2023-06-10T03:30:09;20.60;18.50
32348;DHT22;18821;44.800;10.326;2023-06-10T03:32:38;20.60;20.50
32348;DHT22;18821;44.800;10.326;2023-06-10T03:35:07;20.60;24.20
32348;DHT22;18821;44.800;10.326;2023-06-10T03:37:33;20.70;24.20
32348;DHT22;18821;44.800;10.326;2023-06-10T03:39:59;20.70;24.70
32348;DHT22;18821;44.800;10.326;2023-06-10T03:42:26;20.70;24.40
32348;DHT22;18821;44.800;10.326;2023-06-10T03:44:52;20.70;24.30
32348;DHT22;18821;44.800;10.326;2023-06-10T03:47:18;20.80;24.40
32348;DHT22;18821;44.800;10.326;2023-06-10T03:49:44;20.80;22.00
32348;DHT22;18821;44.800;10.326;2023-06-10T03:52:11;20.80;18.40
32348;DHT22;18821;44.800;10.326;2023-06-10T03:54:37;20.80;13.60
32348;DHT22;18821;44.800;10.326;2023-06-10T03:57:03;20.70;1.20
32348;DHT22;18821;44.800;10.326;2023-06-10T03:59:30;20.70;5.80
32348;DHT22;18821;44.800;10.326;2023-06-10T04:01:56;20.70;9.30
32348;DHT22;18821;44.800;10.326;2023-06-10T04:04:23;20.80;14.30
32348;DHT22;18821;44.800;10.326;2023-06-10T04:06:49;20.70;27.70
32348;DHT22;18821;44.800;10.326;2023-06-10T04:09:15;20.60;32.10
32348;DHT22;18821;44.800;10.326;2023-06-10T04:11:42;20.60;36.50
32348;DHT22;18821;44.800;10.326;2023-06-10T04:14:08;20.50;39.30
32348;DHT22;18821;44.800;10.326;2023-06-10T04:16:36;20.50;41.50
32348;DHT22;18821;44.800;10.326;2023-06-10T04:19:04;20.50;37.30
32348;DHT22;18821;44.800;10.326;2023-06-10T04:21:30;20.40;38.60
32348;DHT22;18821;44.800;10.326;2023-06-10T04:23:56;20.50;37.10
32348;DHT22;18821;44.800;10.326;2023-06-10T04:26:22;20.50;28.90
32348;DHT22;18821;44.800;10.326;2023-06-10T04:28:48;20.50;28.80
32348;DHT22;18821;44.800;10.326;2023-06-10T04:31:14;20.60;25.30
32348;DHT22;18821;44.800;10.326;2023-06-10T04:33:42;20.60;24.00
32348;DHT22;18821;44.800;10.326;2023-06-10T04:36:08;20.60;18.50
32348;DHT22;18821;44.800;10.326;2023-06-10T04:38:35;20.60;19.80
32348;DHT22;18821;44.800;10.326;2023-06-10T04:41:01;20.60;21.00
32348;DHT22;18821;44.800;10.326;2023-06-10T04:43:30;20.70;24.20
32348;DHT22;18821;44.800;10.326;2023-06-10T04:45:59;20.70;25.20
32348;DHT22;18821;44.800;10.326;2023-06-10T04:48:25;20.70;25.10
32348;DHT22;18821;44.800;10.326;2023-06-10T04:50:53;20.70;24.40
32348;DHT22;18821;44.800;10.326;2023-06-10T04:53:19;20.80;22.40
32348;DHT22;18821;44.800;10.326;2023-06-10T04:55:47;20.80;17.80
32348;DHT22;18821;44.800;10.326;2023-06-10T04:58:14;20.80;21.60
32348;DHT22;18821;44.800;10.326;2023-06-10T05:00:41;20.90;24.10
32348;DHT22;18821;44.800;10.326;2023-06-10T05:03:07;20.90;26.50
32348;DHT22;18821;44.800;10.326;2023-06-10T05:05:33;21.00;29.10
32348;DHT22;18821;44.800;10.326;2023-06-10T05:07:58;21.00;30.10
32348;DHT22;18821;44.800;10.326;2023-06-10T05:10:24;21.00;30.60
32348;DHT22;18821;44.800;10.326;2023-06-10T05:12:51;21.00;30.90
32348;DHT22;18821;44.800;10.326;2023-06-10T05:15:17;20.90;31.10
32348;DHT22;18821;44.800;10.326;2023-06-10T05:17:43;20.90;32.60
32348;DHT22;18821;44.800;10.326;2023-06-10T05:20:10;20.90;36.20
32348;DHT22;18821;44.800;10.326;2023-06-10T05:22:36;20.90;37.00
32348;DHT22;18821;44.800;10.326;2023-06-10T05:25:02;20.90;34.00
32348;DHT22;18821;44.800;10.326;2023-06-10T05:27:28;20.90;30.50
32348;DHT22;18821;44.800;10.326;2023-06-10T05:29:54;21.00;29.40
32348;DHT22;18821;44.800;10.326;2023-06-10T05:32:20;21.10;27.80
32348;DHT22;18821;44.800;10.326;2023-06-10T05:34:46;21.10;28.50
32348;DHT22;18821;44.800;10.326;2023-06-10T05:37:12;21.10;23.10
32348;DHT22;18821;44.800;10.326;2023-06-10T05:39:39;21.20;24.10
32348;DHT22;18821;44.800;10.326;2023-06-10T05:42:07;21.20;20.70
32348;DHT22;18821;44.800;10.326;2023-06-10T05:44:33;21.30;19.90
32348;DHT22;18821;44.800;10.326;2023-06-10T05:46:59;21.30;17.60
32348;DHT22;18821;44.800;10.326;2023-06-10T05:49:25;21.30;13.70
32348;DHT22;18821;44.800;10.326;2023-06-10T05:51:51;21.30;15.50
32348;DHT22;18821;44.800;10.326;2023-06-10T05:54:18;21.40;14.80
32348;DHT22;18821;44.800;10.326;2023-06-10T05:56:45;21.40;10.70
32348;DHT22;18821;44.800;10.326;2023-06-10T05:59:11;21.40;8.50
32348;DHT22;18821;44.800;10.326;2023-06-10T06:01:36;21.30;1.00
32348;DHT22;18821;44.800;10.326;2023-06-10T06:04:03;21.40;1.20
32348;DHT22;18821;44.800;10.326;2023-06-10T06:06:28;21.40;1.00
32348;DHT22;18821;44.800;10.326;2023-06-10T06:08:54;21.30;1.00
32348;DHT22;18821;44.800;10.326;2023-06-10T06:11:20;21.20;1.00
32348;DHT22;18821;44.800;10.326;2023-06-10T06:13:46;21.10;1.00
32348;DHT22;18821;44.800;10.326;2023-06-10T06:16:13;21.10;1.00
32348;DHT22;18821;44.800;10.326;2023-06-10T06:18:39;21.10;1.00
32348;DHT22;18821;44.800;10.326;2023-06-10T06:21:05;20.90;1.00
32348;DHT22;18821;44.800;10.326;2023-06-10T06:23:31;20.90;1.00
32348;DHT22;18821;44.800;10.326;2023-06-10T06:25:57;20.60;1.00
32348;DHT22;18821;44.800;10.326;2023-06-10T06:28:23;20.70;1.00
32348;DHT22;18821;44.800;10.326;2023-06-10T06:30:55;20.60;1.00
32348;DHT22;18821;44.800;10.326;2023-06-10T06:33:21;20.50;1.00
32348;DHT22;18821;44.800;10.326;2023-06-10T06:35:47;20.40;2.30
32348;DHT22;18821;44.800;10.326;2023-06-10T06:38:13;20.30;4.70
32348;DHT22;18821;44.800;10.326;2023-06-10T06:40:39;20.20;1.00
32348;DHT22;18821;44.800;10.326;2023-06-10T06:43:05;20.10;1.60
32348;DHT22;18821;44.800;10.326;2023-06-10T06:45:50;20.10;6.50
32348;DHT22;18821;44.800;10.326;2023-06-10T06:48:15;20.10;6.60
32348;DHT22;18821;44.800;10.326;2023-06-10T06:50:41;20.00;13.50
32348;DHT22;18821;44.800;10.326;2023-06-10T06:53:08;20.00;25.50
32348;DHT22;18821;44.800;10.326;2023-06-10T06:55:33;19.90;20.90
32348;DHT22;18821;44.800;10.326;2023-06-10T06:57:59;19.80;24.80
32348;DHT22;18821;44.800;10.326;2023-06-10T07:00:28;19.70;32.00
32348;DHT22;18821;44.800;10.326;2023-06-10T07:02:54;19.50;27.70
32348;DHT22;18821;44.800;10.326;2023-06-10T07:05:20;19.50;34.60
32348;DHT22;18821;44.800;10.326;2023-06-10T07:07:46;19.50;36.40
32348;DHT22;18821;44.800;10.326;2023-06-10T07:10:12;19.50;35.00
32348;DHT22;18821;44.800;10.326;2023-06-10T07:12:38;19.50;28.60
32348;DHT22;18821;44.800;10.326;2023-06-10T07:15:04;19.60;31.10
32348;DHT22;18821;44.800;10.326;2023-06-10T07:17:31;19.60;30.00
32348;DHT22;18821;44.800;10.326;2023-06-10T07:19:57;19.60;26.90
32348;DHT22;18821;44.800;10.326;2023-06-10T07:22:25;19.60;25.30
32348;DHT22;18821;44.800;10.326;2023-06-10T07:24:51;19.70;16.50
32348;DHT22;18821;44.800;10.326;2023-06-10T07:27:17;19.60;15.90
32348;DHT22;18821;44.800;10.326;2023-06-10T07:29:43;19.60;16.80
32348;DHT22;18821;44.800;10.326;2023-06-10T07:32:09;19.70;21.70
32348;DHT22;18821;44.800;10.326;2023-06-10T07:34:35;19.60;14.00
32348;DHT22;18821;44.800;10.326;2023-06-10T07:37:01;19.60;25.10
32348;DHT22;18821;44.800;10.326;2023-06-10T07:39:27;19.60;16.60
32348;DHT22;18821;44.800;10.326;2023-06-10T07:41:53;19.70;21.50
32348;DHT22;18821;44.800;10.326;2023-06-10T07:44:21;19.70;28.60
32348;DHT22;18821;44.800;10.326;2023-06-10T07:46:47;19.60;38.00
32348;DHT22;18821;44.800;10.326;2023-06-10T07:49:13;19.70;39.10
32348;DHT22;18821;44.800;10.326;2023-06-10T07:51:38;19.80;33.90
32348;DHT22;18821;44.800;10.326;2023-06-10T07:54:04;19.90;33.50
32348;DHT22;18821;44.800;10.326;2023-06-10T07:56:30;19.90;28.80
32348;DHT22;18821;44.800;10.326;2023-06-10T07:58:57;19.90;23.50
32348;DHT22;18821;44.800;10.326;2023-06-10T08:01:23;20.10;16.60
32348;DHT22;18821;44.800;10.326;2023-06-10T08:03:50;20.20;13.70
32348;DHT22;18821;44.800;10.326;2023-06-10T08:06:16;20.10;13.50
32348;DHT22;18821;44.800;10.326;2023-06-10T08:08:43;20.20;21.70
32348;DHT22;18821;44.800;10.326;2023-06-10T08:11:13;20.10;12.20
32348;DHT22;18821;44.800;10.326;2023-06-10T08:13:39;20.30;12.80
32348;DHT22;18821;44.800;10.326;2023-06-10T08:16:06;20.10;17.50
32348;DHT22;18821;44.800;10.326;2023-06-10T08:18:32;19.90;22.30
32348;DHT22;18821;44.800;10.326;2023-06-10T08:20:58;19.90;37.00
32348;DHT22;18821;44.800;10.326;2023-06-10T08:23:23;19.90;34.00
32348;DHT22;18821;44.800;10.326;2023-06-10T08:25:49;19.80;36.70
32348;DHT22;18821;44.800;10.326;2023-06-10T08:28:17;19.70;43.50
32348;DHT22;18821;44.800;10.326;2023-06-10T08:30:42;19.80;48.10
32348;DHT22;18821;44.800;10.326;2023-06-10T08:33:09;19.70;42.30
32348;DHT22;18821;44.800;10.326;2023-06-10T08:35:35;19.70;43.20
32348;DHT22;18821;44.800;10.326;2023-06-10T08:38:00;19.50;47.40
32348;DHT22;18821;44.800;10.326;2023-06-10T08:40:26;19.40;45.40
32348;DHT22;18821;44.800;10.326;2023-06-10T08:45:24;19.10;40.50
32348;DHT22;18821;44.800;10.326;2023-06-10T08:47:54;19.00;38.90
32348;DHT22;18821;44.800;10.326;2023-06-10T08:50:23;19.10;41.50
32348;DHT22;18821;44.800;10.326;2023-06-10T08:52:52;19.20;46.80
32348;DHT22;18821;44.800;10.326;2023-06-10T08:55:27;19.40;43.90
32348;DHT22;18821;44.800;10.326;2023-06-10T08:57:55;19.60;37.20
32348;DHT22;18821;44.800;10.326;2023-06-10T09:00:22;19.70;30.50
32348;DHT22;18821;44.800;10.326;2023-06-10T09:02:48;19.70;21.30
32348;DHT22;18821;44.800;10.326;2023-06-10T09:05:15;19.70;24.60
32348;DHT22;18821;44.800;10.326;2023-06-10T09:07:42;19.80;27.10
32348;DHT22;18821;44.800;10.326;2023-06-10T09:10:09;20.00;31.50
32348;DHT22;18821;44.800;10.326;2023-06-10T09:12:35;20.30;29.20
32348;DHT22;18821;44.800;10.326;2023-06-10T09:15:04;20.40;28.30
32348;DHT22;18821;44.800;10.326;2023-06-10T09:17:31;20.40;28.80
32348;DHT22;18821;44.800;10.326;2023-06-10T09:19:59;20.60;28.70
32348;DHT22;18821;44.800;10.326;2023-06-10T09:22:25;20.80;28.70
32348;DHT22;18821;44.800;10.326;2023-06-10T09:25:08;20.90;30.90
32348;DHT22;18821;44.800;10.326;2023-06-10T09:28:04;21.00;27.70
32348;DHT22;18821;44.800;10.326;2023-06-10T09:30:32;21.00;25.90
32348;DHT22;18821;44.800;10.326;2023-06-10T09:33:09;21.30;18.00
32348;DHT22;18821;44.800;10.326;2023-06-10T09:35:35;21.50;14.60
32348;DHT22;18821;44.800;10.326;2023-06-10T09:38:01;21.40;10.90
32348;DHT22;18821;44.800;10.326;2023-06-10T09:40:28;21.40;1.00
32348;DHT22;18821;44.800;10.326;2023-06-10T09:42:59;21.40;10.00
32348;DHT22;18821;44.800;10.326;2023-06-10T09:45:30;21.60;16.70
32348;DHT22;18821;44.800;10.326;2023-06-10T09:47:57;21.70;17.10
32348;DHT22;18821;44.800;10.326;2023-06-10T09:50:23;21.40;19.70
32348;DHT22;18821;44.800;10.326;2023-06-10T09:52:50;21.40;17.00
32348;DHT22;18821;44.800;10.326;2023-06-10T09:55:16;21.60;11.60
32348;DHT22;18821;44.800;10.326;2023-06-10T09:57:43;21.50;10.20
32348;DHT22;18821;44.800;10.326;2023-06-10T10:00:14;21.60;18.40
32348;DHT22;18821;44.800;10.326;2023-06-10T10:02:52;21.90;14.70
32348;DHT22;18821;44.800;10.326;2023-06-10T10:05:21;22.10;13.80
32348;DHT22;18821;44.800;10.326;2023-06-10T10:07:48;21.90;28.70
32348;DHT22;18821;44.800;10.326;2023-06-10T10:10:15;22.10;26.00
32348;DHT22;18821;44.800;10.326;2023-06-10T10:12:42;22.20;24.10
32348;DHT22;18821;44.800;10.326;2023-06-10T10:15:09;22.40;30.90
32348;DHT22;18821;44.800;10.326;2023-06-10T10:17:52;22.60;27.20
32348;DHT22;18821;44.800;10.326;2023-06-10T10:20:22;22.70;24.70
32348;DHT22;18821;44.800;10.326;2023-06-10T10:22:49;22.70;28.60
32348;DHT22;18821;44.800;10.326;2023-06-10T10:25:24;23.00;26.80
32348;DHT22;18821;44.800;10.326;2023-06-10T10:27:54;23.10;21.70
32348;DHT22;18821;44.800;10.326;2023-06-10T10:30:21;23.10;23.30
32348;DHT22;18821;44.800;10.326;2023-06-10T10:32:57;23.00;27.10
32348;DHT22;18821;44.800;10.326;2023-06-10T10:35:24;23.20;25.50
32348;DHT22;18821;44.800;10.326;2023-06-10T10:37:54;23.30;24.50
32348;DHT22;18821;44.800;10.326;2023-06-10T10:40:22;23.40;11.70
32348;DHT22;18821;44.800;10.326;2023-06-10T10:42:51;23.30;14.00
32348;DHT22;18821;44.800;10.326;2023-06-10T10:45:18;23.10;23.60
32348;DHT22;18821;44.800;10.326;2023-06-10T10:47:45;23.30;16.30
32348;DHT22;18821;44.800;10.326;2023-06-10T10:50:20;23.10;15.60
32348;DHT22;18821;44.800;10.326;2023-06-10T10:55:17;23.00;21.10
32348;DHT22;18821;44.800;10.326;2023-06-10T10:57:43;23.00;22.10
32348;DHT22;18821;44.800;10.326;2023-06-10T11:00:09;23.00;27.00
32348;DHT22;18821;44.800;10.326;2023-06-10T11:02:45;23.20;27.10
32348;DHT22;18821;44.800;10.326;2023-06-10T11:05:16;23.30;14.50
32348;DHT22;18821;44.800;10.326;2023-06-10T11:07:55;23.50;21.80
32348;DHT22;18821;44.800;10.326;2023-06-10T11:10:39;23.60;8.20
32348;DHT22;18821;44.800;10.326;2023-06-10T11:13:10;23.80;10.60
32348;DHT22;18821;44.800;10.326;2023-06-10T11:15:46;23.80;6.40
32348;DHT22;18821;44.800;10.326;2023-06-10T11:23:41;24.30;1.00
32348;DHT22;18821;44.800;10.326;2023-06-10T11:26:18;24.60;1.00
32348;DHT22;18821;44.800;10.326;2023-06-10T11:31:20;25.00;1.00
32348;DHT22;18821;44.800;10.326;2023-06-10T11:33:53;25.00;1.00
32348;DHT22;18821;44.800;10.326;2023-06-10T11:36:20;25.20;1.00
32348;DHT22;18821;44.800;10.326;2023-06-10T11:38:46;25.60;1.00
32348;DHT22;18821;44.800;10.326;2023-06-10T11:41:12;25.90;1.00
32348;DHT22;18821;44.800;10.326;2023-06-10T11:43:43;25.80;1.00
32348;DHT22;18821;44.800;10.326;2023-06-10T11:46:10;25.90;1.00
32348;DHT22;18821;44.800;10.326;2023-06-10T11:48:36;26.10;1.00
32348;DHT22;18821;44.800;10.326;2023-06-10T11:51:08;26.30;1.00
32348;DHT22;18821;44.800;10.326;2023-06-10T11:53:35;26.70;1.00
32348;DHT22;18821;44.800;10.326;2023-06-10T11:56:01;27.10;1.00
32348;DHT22;18821;44.800;10.326;2023-06-10T11:58:27;27.10;1.00
32348;DHT22;18821;44.800;10.326;2023-06-10T12:00:54;26.80;1.00
32348;DHT22;18821;44.800;10.326;2023-06-10T12:03:24;26.70;1.00
32348;DHT22;18821;44.800;10.326;2023-06-10T12:05:58;26.60;1.00
32348;DHT22;18821;44.800;10.326;2023-06-10T12:08:24;26.50;1.00
32348;DHT22;18821;44.800;10.326;2023-06-10T12:10:50;26.30;1.00
32348;DHT22;18821;44.800;10.326;2023-06-10T12:13:17;26.20;1.00
32348;DHT22;18821;44.800;10.326;2023-06-10T12:15:46;25.90;1.00
32348;DHT22;18821;44.800;10.326;2023-06-10T12:18:20;25.90;1.00
32348;DHT22;18821;44.800;10.326;2023-06-10T12:20:46;25.90;1.00
32348;DHT22;18821;44.800;10.326;2023-06-10T12:23:12;25.90;1.00
32348;DHT22;18821;44.800;10.326;2023-06-10T12:25:39;25.90;1.00
32348;DHT22;18821;44.800;10.326;2023-06-10T12:28:05;25.90;1.00
32348;DHT22;18821;44.800;10.326;2023-06-10T12:30:34;26.10;1.00
32348;DHT22;18821;44.800;10.326;2023-06-10T12:33:00;26.20;1.00
32348;DHT22;18821;44.800;10.326;2023-06-10T12:35:27;26.40;1.00
32348;DHT22;18821;44.800;10.326;2023-06-10T12:40:32;26.50;1.00
32348;DHT22;18821;44.800;10.326;2023-06-10T12:42:59;26.50;1.00
32348;DHT22;18821;44.800;10.326;2023-06-10T12:45:33;26.60;1.00
32348;DHT22;18821;44.800;10.326;2023-06-10T12:48:23;26.70;1.00
32348;DHT22;18821;44.800;10.326;2023-06-10T12:50:53;26.60;1.00
32348;DHT22;18821;44.800;10.326;2023-06-10T12:53:19;26.70;1.00
32348;DHT22;18821;44.800;10.326;2023-06-10T12:55:46;26.80;1.00
32348;DHT22;18821;44.800;10.326;2023-06-10T12:58:13;26.70;99.90
32348;DHT22;18821;44.800;10.326;2023-06-10T13:00:39;26.70;99.90
32348;DHT22;18821;44.800;10.326;2023-06-10T13:03:08;26.70;99.90
32348;DHT22;18821;44.800;10.326;2023-06-10T13:05:35;26.60;99.90
32348;DHT22;18821;44.800;10.326;2023-06-10T13:08:08;27.00;99.90
32348;DHT22;18821;44.800;10.326;2023-06-10T13:10:36;27.30;99.90
32348;DHT22;18821;44.800;10.326;2023-06-10T13:13:03;27.30;99.90
32348;DHT22;18821;44.800;10.326;2023-06-10T13:15:34;26.60;99.90
32348;DHT22;18821;44.800;10.326;2023-06-10T13:18:04;26.20;99.90
32348;DHT22;18821;44.800;10.326;2023-06-10T13:20:30;26.30;99.90
32348;DHT22;18821;44.800;10.326;2023-06-10T13:22:56;26.60;99.90
32348;DHT22;18821;44.800;10.326;2023-06-10T13:25:22;26.80;99.90
32348;DHT22;18821;44.800;10.326;2023-06-10T13:27:48;26.90;99.90
32348;DHT22;18821;44.800;10.326;2023-06-10T13:30:15;27.10;99.90
32348;DHT22;18821;44.800;10.326;2023-06-10T13:32:41;27.10;99.90
32348;DHT22;18821;44.800;10.326;2023-06-10T13:35:07;27.00;99.90
32348;DHT22;18821;44.800;10.326;2023-06-10T13:37:34;27.00;99.90
32348;DHT22;18821;44.800;10.326;2023-06-10T13:40:01;27.10;99.90
32348;DHT22;18821;44.800;10.326;2023-06-10T13:42:27;27.20;99.90
32348;DHT22;18821;44.800;10.326;2023-06-10T13:44:54;27.30;99.90
32348;DHT22;18821;44.800;10.326;2023-06-10T13:47:20;27.40;99.90
32348;DHT22;18821;44.800;10.326;2023-06-10T13:49:46;27.40;99.90
32348;DHT22;18821;44.800;10.326;2023-06-10T13:52:12;27.30;99.90
32348;DHT22;18821;44.800;10.326;2023-06-10T13:54:38;27.40;99.90
32348;DHT22;18821;44.800;10.326;2023-06-10T13:57:04;27.40;99.90
32348;DHT22;18821;44.800;10.326;2023-06-10T13:59:30;27.30;99.90
32348;DHT22;18821;44.800;10.326;2023-06-10T14:01:56;27.30;99.90
32348;DHT22;18821;44.800;10.326;2023-06-10T14:04:22;27.10;99.90
32348;DHT22;18821;44.800;10.326;2023-06-10T14:06:48;27.00;99.90
32348;DHT22;18821;44.800;10.326;2023-06-10T14:09:15;26.90;99.90
32348;DHT22;18821;44.800;10.326;2023-06-10T14:11:42;26.70;99.90
32348;DHT22;18821;44.800;10.326;2023-06-10T14:14:08;26.50;99.90
32348;DHT22;18821;44.800;10.326;2023-06-10T14:16:35;26.30;99.90
32348;DHT22;18821;44.800;10.326;2023-06-10T14:19:00;26.30;99.90
32348;DHT22;18821;44.800;10.326;2023-06-10T14:21:26;26.40;99.90
32348;DHT22;18821;44.800;10.326;2023-06-10T14:23:52;26.30;99.90
32348;DHT22;18821;44.800;10.326;2023-06-10T14:26:19;26.30;99.90
32348;DHT22;18821;44.800;10.326;2023-06-10T14:28:48;26.50;99.90
32348;DHT22;18821;44.800;10.326;2023-06-10T14:31:13;26.60;99.90
32348;DHT22;18821;44.800;10.326;2023-06-10T14:33:39;26.70;99.90
32348;DHT22;18821;44.800;10.326;2023-06-10T14:36:09;26.80;99.90
32348;DHT22;18821;44.800;10.326;2023-06-10T14:38:44;27.00;99.90
32348;DHT22;18821;44.800;10.326;2023-06-10T14:41:13;27.00;99.90
32348;DHT22;18821;44.800;10.326;2023-06-10T14:43:39;27.10;99.90
32348;DHT22;18821;44.800;10.326;2023-06-10T14:46:05;27.10;99.90
32348;DHT22;18821;44.800;10.326;2023-06-10T14:48:30;27.20;99.90
32348;DHT22;18821;44.800;10.326;2023-06-10T14:50:56;27.20;99.90
32348;DHT22;18821;44.800;10.326;2023-06-10T14:53:22;27.30;99.90
32348;DHT22;18821;44.800;10.326;2023-06-10T14:55:48;27.30;99.90
32348;DHT22;18821;44.800;10.326;2023-06-10T14:58:14;27.10;99.90
32348;DHT22;18821;44.800;10.326;2023-06-10T15:00:40;27.10;99.90
32348;DHT22;18821;44.800;10.326;2023-06-10T15:03:06;27.10;99.90
32348;DHT22;18821;44.800;10.326;2023-06-10T15:05:32;27.10;99.90
32348;DHT22;18821;44.800;10.326;2023-06-10T15:08:00;27.10;99.90
32348;DHT22;18821;44.800;10.326;2023-06-10T15:10:26;27.20;99.90
32348;DHT22;18821;44.800;10.326;2023-06-10T15:12:52;27.10;99.90
32348;DHT22;18821;44.800;10.326;2023-06-10T15:15:24;27.10;99.90
32348;DHT22;18821;44.800;10.326;2023-06-10T15:17:51;27.10;99.90
32348;DHT22;18821;44.800;10.326;2023-06-10T15:20:17;27.20;99.90
32348;DHT22;18821;44.800;10.326;2023-06-10T15:22:43;27.20;99.90
32348;DHT22;18821;44.800;10.326;2023-06-10T15:25:09;27.20;99.90
32348;DHT22;18821;44.800;10.326;2023-06-10T15:27:35;27.20;99.90
32348;DHT22;18821;44.800;10.326;2023-06-10T15:30:02;27.00;99.90
32348;DHT22;18821;44.800;10.326;2023-06-10T15:32:28;26.70;99.90
32348;DHT22;18821;44.800;10.326;2023-06-10T15:34:53;26.60;99.90
32348;DHT22;18821;44.800;10.326;2023-06-10T15:37:20;26.70;99.90
32348;DHT22;18821;44.800;10.326;2023-06-10T15:39:47;26.70;99.90
32348;DHT22;18821;44.800;10.326;2023-06-10T15:42:13;26.70;99.90
32348;DHT22;18821;44.800;10.326;2023-06-10T15:44:39;26.60;99.90